X  Zamknij Lotniskowe dane METAR        LYNI Nis Airport
Temperatura
14°C Temperatura
6°C Punkt rosy
58% Wilgotność



Wiatr
5 M/S
12 MPH
19 KM/H
10 KTS



50°
NE
Warunki bieżące

Partly Cloudy Częściowe zachmurzenie
Ciśnienie 1009 (hPa) - 29.79 (inHg)
Widoczność 6 (mil) - 10 (km)
Lotnisko
Kod lotniska LYNI

Położenie: Nis Airport
Odległość: 63 (km)

Metar:
METAR LYNI 051400Z 05010KT 9999 SCT037 14/06 Q1009 NOSIG

Czas: 05-03-2024 15:00 CET